createdAt,value
2022-12-25T00:00:06.620Z,6.42
2022-12-25T00:02:37.425Z,6.33
2022-12-25T00:05:08.996Z,6.25
2022-12-25T00:07:39.607Z,6.28
2022-12-25T00:10:13.042Z,6.32
2022-12-25T00:12:43.793Z,6.21
2022-12-25T00:15:15.901Z,6.31
2022-12-25T00:17:49.565Z,6.24
2022-12-25T00:20:20.136Z,6.10
2022-12-25T00:22:50.665Z,6.03
2022-12-25T00:25:21.167Z,6.01
2022-12-25T00:27:53.982Z,5.98
2022-12-25T00:30:24.428Z,6.00
2022-12-25T00:32:54.883Z,5.92
2022-12-25T00:35:25.826Z,6.00
2022-12-25T00:37:56.356Z,5.98
2022-12-25T00:40:28.167Z,5.96
2022-12-25T00:42:58.879Z,5.89
2022-12-25T00:45:31.322Z,5.91
2022-12-25T00:48:01.541Z,5.74
2022-12-25T00:50:32.508Z,5.76
2022-12-25T00:53:03.102Z,5.68
2022-12-25T00:55:35.168Z,5.70
2022-12-25T00:58:06.869Z,5.74
2022-12-25T01:00:40.445Z,5.70
2022-12-25T01:03:11.125Z,5.77
2022-12-25T01:05:41.917Z,5.67
2022-12-25T01:08:12.994Z,5.74
2022-12-25T01:10:43.928Z,5.71
2022-12-25T01:13:14.480Z,5.60
2022-12-25T01:15:45.172Z,5.51
2022-12-25T01:18:15.884Z,5.62
2022-12-25T01:20:46.862Z,5.61
2022-12-25T01:23:18.263Z,5.63
2022-12-25T01:25:48.907Z,5.72
2022-12-25T01:28:20.327Z,5.74
2022-12-25T01:30:52.205Z,5.64
2022-12-25T01:33:22.620Z,5.76
2022-12-25T01:35:53.481Z,5.76
2022-12-25T01:38:24.015Z,5.63
2022-12-25T01:40:54.874Z,5.48
2022-12-25T01:43:28.530Z,5.52
2022-12-25T01:45:59.981Z,5.50
2022-12-25T01:48:33.973Z,5.33
2022-12-25T01:51:10.214Z,5.46
2022-12-25T01:53:41.364Z,5.33
2022-12-25T01:56:12.512Z,5.29
2022-12-25T01:58:45.083Z,5.40
2022-12-25T02:01:16.857Z,5.30
2022-12-25T02:03:49.000Z,5.18
2022-12-25T02:06:21.274Z,5.27
2022-12-25T02:08:52.236Z,5.14
2022-12-25T02:11:41.942Z,5.18
2022-12-25T02:14:12.964Z,5.06
2022-12-25T02:16:57.715Z,5.05
2022-12-25T02:19:33.956Z,5.00
2022-12-25T02:22:16.822Z,4.97
2022-12-25T02:25:10.935Z,4.88
2022-12-25T02:28:05.387Z,4.92
2022-12-25T02:30:40.626Z,5.00
2022-12-25T02:33:34.969Z,4.93
2022-12-25T02:36:08.784Z,4.82
2022-12-25T02:38:46.445Z,4.71
2022-12-25T02:41:18.212Z,4.82
2022-12-25T02:44:07.100Z,4.70
2022-12-25T02:46:57.955Z,4.64
2022-12-25T02:49:49.964Z,4.66
2022-12-25T02:52:42.614Z,4.68
2022-12-25T02:55:34.073Z,4.70
2022-12-25T02:58:25.484Z,4.71
2022-12-25T03:01:20.397Z,4.70
2022-12-25T03:04:12.166Z,4.64
2022-12-25T03:06:46.613Z,4.55
2022-12-25T03:09:43.858Z,4.64
2022-12-25T03:12:23.199Z,4.76
2022-12-25T03:15:11.923Z,4.61
2022-12-25T03:17:44.326Z,4.58
2022-12-25T03:20:36.031Z,4.60
2022-12-25T03:23:25.893Z,4.48
2022-12-25T03:26:15.528Z,4.52
2022-12-25T03:28:46.059Z,4.47
2022-12-25T03:31:31.508Z,4.52
2022-12-25T03:34:53.164Z,4.35
2022-12-25T03:37:40.188Z,4.44
2022-12-25T03:40:43.769Z,4.58
2022-12-25T03:43:41.072Z,4.65
2022-12-25T03:46:32.337Z,4.72
2022-12-25T03:49:41.958Z,4.55
2022-12-25T03:52:33.268Z,4.58
2022-12-25T03:55:24.586Z,4.54
2022-12-25T03:58:13.452Z,4.44
2022-12-25T04:01:01.863Z,4.44
2022-12-25T04:03:50.314Z,4.40
2022-12-25T04:06:39.209Z,4.47
2022-12-25T04:09:29.577Z,4.30
2022-12-25T04:12:17.792Z,4.35
2022-12-25T04:15:06.162Z,4.32
2022-12-25T04:17:54.773Z,4.30
2022-12-25T04:20:43.218Z,4.39
2022-12-25T04:23:31.984Z,4.31
2022-12-25T04:26:20.883Z,4.20
2022-12-25T04:29:09.215Z,4.09
2022-12-25T04:31:58.808Z,4.28
2022-12-25T04:34:49.669Z,4.16
2022-12-25T04:37:20.346Z,4.02
2022-12-25T04:39:51.556Z,3.98
2022-12-25T04:42:23.993Z,3.98
2022-12-25T04:44:55.511Z,3.89
2022-12-25T04:47:26.151Z,3.86
2022-12-25T04:49:56.669Z,3.87
2022-12-25T04:52:27.357Z,3.80
2022-12-25T04:54:58.010Z,3.83
2022-12-25T04:57:28.737Z,3.89
2022-12-25T04:59:59.373Z,3.87
2022-12-25T05:02:33.405Z,3.82
2022-12-25T05:05:05.977Z,3.82
2022-12-25T05:07:39.414Z,3.81
2022-12-25T05:10:11.251Z,3.84
2022-12-25T05:12:44.702Z,3.82
2022-12-25T05:15:15.808Z,3.67
2022-12-25T05:17:47.886Z,3.60
2022-12-25T05:20:18.603Z,3.54
2022-12-25T05:22:49.238Z,3.56
2022-12-25T05:25:20.580Z,3.58
2022-12-25T05:27:54.050Z,3.55
2022-12-25T05:30:24.945Z,3.52
2022-12-25T05:32:55.437Z,3.56
2022-12-25T05:35:25.934Z,3.56
2022-12-25T05:37:56.622Z,3.60
2022-12-25T05:40:27.304Z,3.60
2022-12-25T05:42:58.309Z,3.56
2022-12-25T05:45:28.929Z,3.48
2022-12-25T05:47:59.431Z,3.52
2022-12-25T05:50:30.511Z,3.58
2022-12-25T05:53:07.717Z,3.60
2022-12-25T05:55:36.565Z,3.45
2022-12-25T05:58:08.822Z,3.42
2022-12-25T06:00:41.468Z,3.34
2022-12-25T06:03:12.270Z,3.30
2022-12-25T06:05:43.543Z,3.30
2022-12-25T06:08:14.405Z,3.24
2022-12-25T06:10:44.941Z,3.21
2022-12-25T06:13:15.855Z,3.22
2022-12-25T06:15:46.324Z,3.21
2022-12-25T06:18:18.960Z,3.22
2022-12-25T06:20:51.513Z,3.27
2022-12-25T06:23:23.382Z,3.38
2022-12-25T06:25:55.153Z,3.36
2022-12-25T06:28:26.832Z,3.28
2022-12-25T06:30:57.943Z,3.36
2022-12-25T06:33:29.895Z,3.29
2022-12-25T06:36:00.836Z,3.32
2022-12-25T06:38:31.324Z,3.36
2022-12-25T06:41:10.737Z,3.35
2022-12-25T06:43:41.429Z,3.36
2022-12-25T06:46:13.747Z,3.32
2022-12-25T06:48:50.837Z,3.32
2022-12-25T06:51:26.549Z,3.32
2022-12-25T06:53:58.585Z,3.23
2022-12-25T06:56:31.334Z,3.24
2022-12-25T06:59:04.589Z,3.21
2022-12-25T07:01:47.047Z,3.20
2022-12-25T07:04:23.645Z,3.16
2022-12-25T07:06:54.202Z,3.12
2022-12-25T07:09:24.944Z,3.04
2022-12-25T07:11:55.683Z,3.02
2022-12-25T07:14:26.139Z,2.97
2022-12-25T07:16:57.869Z,3.01
2022-12-25T07:19:28.786Z,2.96
2022-12-25T07:22:00.419Z,3.06
2022-12-25T07:24:35.458Z,3.06
2022-12-25T07:27:07.620Z,3.06
2022-12-25T07:29:39.491Z,2.97
2022-12-25T07:32:10.029Z,2.94
2022-12-25T07:34:41.566Z,3.02
2022-12-25T07:37:13.520Z,2.96
2022-12-25T07:39:44.027Z,3.04
2022-12-25T07:42:14.459Z,2.91
2022-12-25T07:44:46.271Z,3.01
2022-12-25T07:47:16.704Z,2.89
2022-12-25T07:49:47.256Z,2.94
2022-12-25T07:52:18.201Z,2.86
2022-12-25T07:54:50.788Z,2.73
2022-12-25T07:57:22.348Z,2.86
2022-12-25T07:59:53.372Z,2.78
2022-12-25T08:02:28.668Z,2.78
2022-12-25T08:05:00.499Z,2.90
2022-12-25T08:07:31.883Z,3.04
2022-12-25T08:10:04.363Z,3.25
2022-12-25T08:12:37.089Z,3.16
2022-12-25T08:15:11.876Z,3.10
2022-12-25T08:17:45.607Z,3.27
2022-12-25T08:20:17.421Z,3.31
2022-12-25T08:22:50.563Z,3.26
2022-12-25T08:25:21.092Z,3.28
2022-12-25T08:27:51.704Z,3.33
2022-12-25T08:30:22.112Z,3.38
2022-12-25T08:32:53.391Z,3.54
2022-12-25T08:35:23.909Z,3.62
2022-12-25T08:37:56.641Z,3.81
2022-12-25T08:40:27.860Z,3.68
2022-12-25T08:43:01.521Z,3.52
2022-12-25T08:45:35.265Z,3.50
2022-12-25T08:48:05.171Z,3.46
2022-12-25T08:50:35.876Z,3.33
2022-12-25T08:53:06.680Z,3.44
2022-12-25T08:55:37.190Z,3.62
2022-12-25T08:58:09.429Z,3.55
2022-12-25T09:00:40.809Z,3.47
2022-12-25T09:03:11.478Z,3.54
2022-12-25T09:05:43.066Z,3.77
2022-12-25T09:08:13.698Z,3.72
2022-12-25T09:10:44.315Z,3.78
2022-12-25T09:13:16.547Z,3.61
2022-12-25T09:15:47.061Z,3.50
2022-12-25T09:18:17.772Z,3.58
2022-12-25T09:20:49.717Z,3.58
2022-12-25T09:23:20.207Z,3.60
2022-12-25T09:25:52.021Z,3.69
2022-12-25T09:28:22.959Z,3.73
2022-12-25T09:30:59.168Z,3.82
2022-12-25T09:33:33.055Z,3.84
2022-12-25T09:36:08.162Z,4.00
2022-12-25T09:38:40.611Z,4.18
2022-12-25T09:41:36.971Z,4.28
2022-12-25T09:44:14.801Z,4.23
2022-12-25T09:46:48.349Z,4.07
2022-12-25T09:49:40.348Z,4.07
2022-12-25T09:52:19.496Z,4.32
2022-12-25T09:55:04.917Z,4.81
2022-12-25T09:57:35.681Z,4.87
2022-12-25T10:00:09.762Z,4.86
2022-12-25T10:02:50.021Z,5.01
2022-12-25T10:05:26.514Z,5.00
2022-12-25T10:08:10.638Z,5.00
2022-12-25T10:11:06.790Z,4.96
2022-12-25T10:13:58.479Z,4.96
2022-12-25T10:16:51.469Z,4.92
2022-12-25T10:19:27.821Z,5.10
2022-12-25T10:22:06.858Z,5.16
2022-12-25T10:24:46.873Z,5.16
2022-12-25T10:27:23.488Z,4.87
2022-12-25T10:29:56.032Z,5.12
2022-12-25T10:32:26.684Z,4.70
2022-12-25T10:34:57.506Z,4.50
2022-12-25T10:37:27.993Z,4.52
2022-12-25T10:40:00.014Z,4.55
2022-12-25T10:42:45.720Z,4.72
2022-12-25T10:45:17.822Z,4.54
2022-12-25T10:47:54.990Z,4.76
2022-12-25T10:50:24.568Z,4.89
2022-12-25T10:53:05.136Z,4.85
2022-12-25T10:55:35.744Z,4.74
2022-12-25T10:58:07.501Z,4.78
2022-12-25T11:00:38.222Z,4.67
2022-12-25T11:03:11.872Z,4.84
2022-12-25T11:05:42.733Z,4.84
2022-12-25T11:08:22.049Z,4.93
2022-12-25T11:11:06.807Z,4.99
2022-12-25T11:13:43.231Z,4.80
2022-12-25T11:16:35.322Z,4.74
2022-12-25T11:19:27.124Z,4.92
2022-12-25T11:22:01.071Z,4.79
2022-12-25T11:24:35.161Z,4.70
2022-12-25T11:27:07.383Z,4.80
2022-12-25T11:29:50.628Z,4.84
2022-12-25T11:32:24.282Z,4.82
2022-12-25T11:34:55.766Z,4.79
2022-12-25T11:37:47.234Z,4.83
2022-12-25T11:40:20.928Z,4.82
2022-12-25T11:43:07.569Z,4.81
2022-12-25T11:45:36.702Z,4.88
2022-12-25T11:48:15.991Z,4.88
2022-12-25T11:50:59.184Z,5.04
2022-12-25T11:53:35.035Z,5.14
2022-12-25T11:56:11.661Z,5.06
2022-12-25T11:58:57.329Z,5.17
2022-12-25T12:01:37.120Z,5.15
2022-12-25T12:04:27.606Z,4.92
2022-12-25T12:07:33.827Z,4.82
2022-12-25T12:10:13.292Z,4.89
2022-12-25T12:12:49.611Z,4.87
2022-12-25T12:15:32.377Z,4.98
2022-12-25T12:18:25.255Z,4.98
2022-12-25T12:21:08.333Z,5.02
2022-12-25T12:23:58.503Z,5.06
2022-12-25T12:26:32.858Z,5.06
2022-12-25T12:29:05.877Z,5.10
2022-12-25T12:31:45.455Z,5.10
2022-12-25T12:34:37.224Z,5.28
2022-12-25T12:37:24.773Z,5.12
2022-12-25T12:39:55.218Z,5.20
2022-12-25T12:42:29.230Z,5.46
2022-12-25T12:45:08.624Z,5.40
2022-12-25T12:47:48.301Z,5.36
2022-12-25T12:50:43.610Z,5.36
2022-12-25T12:53:25.791Z,5.25
2022-12-25T12:55:58.238Z,5.27
2022-12-25T12:58:36.320Z,5.28
2022-12-25T13:01:09.901Z,5.38
2022-12-25T13:03:53.172Z,5.39
2022-12-25T13:06:43.910Z,5.43
2022-12-25T13:09:23.031Z,5.50
2022-12-25T13:11:53.658Z,5.50
2022-12-25T13:14:25.801Z,5.52
2022-12-25T13:16:58.124Z,5.60
2022-12-25T13:19:30.966Z,5.72
2022-12-25T13:22:07.587Z,5.72
2022-12-25T13:24:38.820Z,5.60
2022-12-25T13:27:18.386Z,5.64
2022-12-25T13:29:48.909Z,5.45
2022-12-25T13:32:31.638Z,5.52
2022-12-25T13:35:03.096Z,5.60
2022-12-25T13:37:33.764Z,5.63
2022-12-25T13:40:10.888Z,5.69
2022-12-25T13:42:41.809Z,5.58
2022-12-25T13:45:18.076Z,5.64
2022-12-25T13:47:55.221Z,5.57
2022-12-25T13:50:31.722Z,5.67
2022-12-25T13:53:16.644Z,5.66
2022-12-25T13:55:50.173Z,5.68
2022-12-25T13:58:26.565Z,5.68
2022-12-25T14:01:01.820Z,5.64
2022-12-25T14:03:38.456Z,5.73
2022-12-25T14:06:23.810Z,5.70
2022-12-25T14:09:00.875Z,5.66
2022-12-25T14:11:36.994Z,5.64
2022-12-25T14:14:11.059Z,5.59
2022-12-25T14:16:44.332Z,5.63
2022-12-25T14:19:35.334Z,5.60
2022-12-25T14:22:10.882Z,5.57
2022-12-25T14:24:42.906Z,5.51
2022-12-25T14:27:25.920Z,5.52
2022-12-25T14:30:00.849Z,5.55
2022-12-25T14:32:33.833Z,5.56
2022-12-25T14:35:04.526Z,5.52
2022-12-25T14:37:37.035Z,5.62
2022-12-25T14:40:24.412Z,5.60
2022-12-25T14:43:02.085Z,5.53
2022-12-25T14:45:36.703Z,5.51
2022-12-25T14:48:28.224Z,5.56
2022-12-25T14:51:07.716Z,5.57
2022-12-25T14:53:50.444Z,5.59
2022-12-25T14:56:23.683Z,5.56
2022-12-25T14:58:56.740Z,5.65
2022-12-25T15:01:36.380Z,5.66
2022-12-25T15:04:14.690Z,5.60
2022-12-25T15:07:08.077Z,5.61
2022-12-25T15:09:40.267Z,5.63
2022-12-25T15:12:12.995Z,5.68
2022-12-25T15:14:43.535Z,5.73
2022-12-25T15:17:17.211Z,5.76
2022-12-25T15:19:48.271Z,5.82
2022-12-25T15:22:20.237Z,5.78
2022-12-25T15:24:54.672Z,5.89
2022-12-25T15:27:23.987Z,5.86
2022-12-25T15:30:10.912Z,5.86
2022-12-25T15:32:29.831Z,5.91
2022-12-25T15:35:02.058Z,5.90
2022-12-25T15:37:32.496Z,5.98
2022-12-25T15:40:03.166Z,5.98
2022-12-25T15:42:35.492Z,5.98
2022-12-25T15:45:06.145Z,6.02
2022-12-25T15:47:37.056Z,6.05
2022-12-25T15:50:08.713Z,6.08
2022-12-25T15:52:39.293Z,6.13
2022-12-25T15:55:11.455Z,6.12
2022-12-25T15:57:43.352Z,6.22
2022-12-25T16:00:17.236Z,6.23
2022-12-25T16:02:47.926Z,6.22
2022-12-25T16:05:18.765Z,6.30
2022-12-25T16:07:49.704Z,6.32
2022-12-25T16:10:22.547Z,6.34
2022-12-25T16:12:54.188Z,6.37
2022-12-25T16:15:24.654Z,6.39
2022-12-25T16:17:55.105Z,6.39
2022-12-25T16:20:25.667Z,6.44
2022-12-25T16:22:56.653Z,6.40
2022-12-25T16:25:27.304Z,6.43
2022-12-25T16:27:57.775Z,6.47
2022-12-25T16:30:28.578Z,6.48
2022-12-25T16:32:59.257Z,6.52
2022-12-25T16:35:29.863Z,6.52
2022-12-25T16:38:00.825Z,6.52
2022-12-25T16:40:33.832Z,6.50
2022-12-25T16:43:05.011Z,6.51
2022-12-25T16:45:40.507Z,6.55
2022-12-25T16:48:12.392Z,6.53
2022-12-25T16:50:44.412Z,6.49
2022-12-25T16:53:14.953Z,6.56
2022-12-25T16:55:46.367Z,6.55
2022-12-25T16:58:16.773Z,6.57
2022-12-25T17:00:49.560Z,6.57
2022-12-25T17:03:20.636Z,6.58
2022-12-25T17:05:51.184Z,6.60
2022-12-25T17:08:23.667Z,6.61
2022-12-25T17:10:54.498Z,6.60
2022-12-25T17:13:25.419Z,6.62
2022-12-25T17:15:55.987Z,6.60
2022-12-25T17:18:27.066Z,6.61
2022-12-25T17:20:58.977Z,6.61
2022-12-25T17:23:29.640Z,6.64
2022-12-25T17:26:03.629Z,6.70
2022-12-25T17:28:35.786Z,6.68
2022-12-25T17:31:09.178Z,6.70
2022-12-25T17:33:41.610Z,6.70
2022-12-25T17:36:15.103Z,6.72
2022-12-25T17:38:47.537Z,6.77
2022-12-25T17:41:19.997Z,6.73
2022-12-25T17:43:51.724Z,6.80
2022-12-25T17:46:25.988Z,6.89
2022-12-25T17:48:58.812Z,6.86
2022-12-25T17:51:31.705Z,6.82
2022-12-25T17:54:06.035Z,6.82
2022-12-25T17:56:38.102Z,6.84
2022-12-25T17:59:11.679Z,6.86
2022-12-25T18:01:42.780Z,6.85
2022-12-25T18:04:17.290Z,6.89
2022-12-25T18:06:48.488Z,6.88
2022-12-25T18:09:21.244Z,6.90
2022-12-25T18:11:53.144Z,6.94
2022-12-25T18:14:23.747Z,6.90
2022-12-25T18:16:54.723Z,6.92
2022-12-25T18:19:26.668Z,6.94
2022-12-25T18:21:57.273Z,7.00
2022-12-25T18:24:28.343Z,6.97
2022-12-25T18:26:58.863Z,6.98
2022-12-25T18:29:29.463Z,7.00
2022-12-25T18:32:00.185Z,6.99
2022-12-25T18:34:31.141Z,7.02
2022-12-25T18:37:03.585Z,7.03
2022-12-25T18:39:36.003Z,7.06
2022-12-25T18:42:24.278Z,7.01
2022-12-25T18:44:56.539Z,7.03
2022-12-25T18:47:26.910Z,6.96
2022-12-25T18:49:57.397Z,6.99
2022-12-25T18:52:48.335Z,7.00
2022-12-25T18:55:04.563Z,7.06
2022-12-25T18:57:35.963Z,7.10
2022-12-25T19:00:09.615Z,7.11
2022-12-25T19:02:41.761Z,7.10
2022-12-25T19:05:13.752Z,7.08
2022-12-25T19:07:45.845Z,7.11
2022-12-25T19:10:16.710Z,7.08
2022-12-25T19:12:48.658Z,7.10
2022-12-25T19:15:21.442Z,7.11
2022-12-25T19:17:51.855Z,7.18
2022-12-25T19:20:22.784Z,7.14
2022-12-25T19:22:53.292Z,7.15
2022-12-25T19:25:23.650Z,7.15
2022-12-25T19:27:54.002Z,7.18
2022-12-25T19:30:24.954Z,7.16
2022-12-25T19:32:55.925Z,7.16
2022-12-25T19:35:26.949Z,7.22
2022-12-25T19:37:57.381Z,7.21
2022-12-25T19:40:28.676Z,7.22
2022-12-25T19:42:59.740Z,7.28
2022-12-25T19:45:30.330Z,7.24
2022-12-25T19:48:00.710Z,7.26
2022-12-25T19:50:34.268Z,7.26
2022-12-25T19:53:04.795Z,7.29
2022-12-25T19:55:35.395Z,7.31
2022-12-25T19:58:06.879Z,7.36
2022-12-25T20:00:38.574Z,7.40
2022-12-25T20:03:10.092Z,7.38
2022-12-25T20:05:41.809Z,7.38
2022-12-25T20:08:13.510Z,7.42
2022-12-25T20:10:45.178Z,7.48
2022-12-25T20:13:17.299Z,7.43
2022-12-25T20:15:48.678Z,7.36
2022-12-25T20:18:22.566Z,7.43
2022-12-25T20:21:04.500Z,7.52
2022-12-25T20:23:35.867Z,7.52
2022-12-25T20:26:07.514Z,7.55
2022-12-25T20:28:40.206Z,7.58
2022-12-25T20:31:27.245Z,7.58
2022-12-25T20:34:07.131Z,7.62
2022-12-25T20:36:38.376Z,7.55
2022-12-25T20:39:10.366Z,7.59
2022-12-25T20:41:42.689Z,7.56
2022-12-25T20:44:14.389Z,7.56
2022-12-25T20:46:48.546Z,7.54
2022-12-25T20:49:20.669Z,7.58
2022-12-25T20:51:51.180Z,7.58
2022-12-25T20:54:25.127Z,7.53
2022-12-25T20:56:55.719Z,7.66
2022-12-25T20:59:36.947Z,7.63
2022-12-25T21:02:06.976Z,7.64
2022-12-25T21:04:37.605Z,7.67
2022-12-25T21:07:09.170Z,7.64
2022-12-25T21:09:41.847Z,7.66
2022-12-25T21:12:12.668Z,7.62
2022-12-25T21:14:48.847Z,7.68
2022-12-25T21:17:19.901Z,7.65
2022-12-25T21:19:52.092Z,7.66
2022-12-25T21:22:22.871Z,7.76
2022-12-25T21:24:56.747Z,7.77
2022-12-25T21:27:31.892Z,7.72
2022-12-25T21:30:14.890Z,7.76
2022-12-25T21:32:55.399Z,7.74
2022-12-25T21:35:26.352Z,7.78
2022-12-25T21:37:57.226Z,7.80
2022-12-25T21:40:32.567Z,8.06
2022-12-25T21:43:03.463Z,7.98
2022-12-25T21:45:37.339Z,7.93
2022-12-25T21:48:08.322Z,7.92
2022-12-25T21:50:57.190Z,7.96
2022-12-25T21:53:31.570Z,7.96
2022-12-25T21:56:02.913Z,7.98
2022-12-25T21:58:35.870Z,8.00
2022-12-25T22:01:07.820Z,8.00
2022-12-25T22:03:38.760Z,8.02
2022-12-25T22:06:30.350Z,8.02
2022-12-25T22:09:01.574Z,8.11
2022-12-25T22:11:49.954Z,8.10
2022-12-25T22:14:51.008Z,8.12
2022-12-25T22:17:31.842Z,8.15
2022-12-25T22:20:03.231Z,8.10
2022-12-25T22:22:34.971Z,8.16
2022-12-25T22:25:07.120Z,8.28
2022-12-25T22:27:40.748Z,8.23
2022-12-25T22:30:17.344Z,8.23
2022-12-25T22:32:50.591Z,8.38
2022-12-25T22:35:26.252Z,8.37
2022-12-25T22:37:57.286Z,8.29
2022-12-25T22:40:28.007Z,8.49
2022-12-25T22:42:59.877Z,8.50
2022-12-25T22:45:35.127Z,8.67
2022-12-25T22:48:10.827Z,8.62
2022-12-25T22:50:42.350Z,8.60
2022-12-25T22:53:14.788Z,8.64
2022-12-25T22:55:50.810Z,8.62
2022-12-25T22:58:22.781Z,8.62
2022-12-25T23:00:54.844Z,8.71
2022-12-25T23:03:25.656Z,8.70
2022-12-25T23:05:58.625Z,8.78
2022-12-25T23:08:30.537Z,8.80
2022-12-25T23:11:06.810Z,8.82
2022-12-25T23:13:56.645Z,8.84
2022-12-25T23:16:27.663Z,8.77
2022-12-25T23:19:16.515Z,8.82
2022-12-25T23:22:06.201Z,8.82
2022-12-25T23:24:54.694Z,8.88
2022-12-25T23:27:25.589Z,8.83
2022-12-25T23:29:56.061Z,8.78
2022-12-25T23:32:29.240Z,8.91
2022-12-25T23:34:59.614Z,8.82
2022-12-25T23:37:30.372Z,8.91
2022-12-25T23:40:02.119Z,8.92
2022-12-25T23:42:33.954Z,8.89
2022-12-25T23:45:04.492Z,8.87
2022-12-25T23:47:36.435Z,8.88
2022-12-25T23:50:08.744Z,8.92
2022-12-25T23:52:39.843Z,8.86
2022-12-25T23:55:10.582Z,9.04
2022-12-25T23:57:43.700Z,8.99
